Newburg, Wisconsin
Current Conditions -  °F | °C
As of 2:10 AM on Thursday 29 Jan 2015 (Local Time) from KETB Reporting Station
Overcast Overcast  
Wind Chill: 32°   Ceiling: 2700
Heat Index: 32°   Visibility: 10mi
Dew Point: 23°   Wind: 0mph
Humidity: 69%   Direction: NA
Pressure: 29.77"   Gusts: NA
Location:  43.43°N, 88.05°W
Report Text: KETB 290810Z AUTO 00000KT 10SM OVC027 00/M05 A2977 RMK AO2
Loading
Personal Weather Stations






























Interactive Weather Map New forecast layout! Learn more

10-Day Weather Forecast

Advertisements
Track Severe Weather on mobile